Terminal Aerodrome Forecast
Issued by NWS

Home | Current Version | Previous Version | Text Only | Print | Product List | Glossary On
Versions: 1 2 3 4 5 6 7 8 9 10 11 12 13 14 15 16 17 18 19 20 21 22 23 24 25 26 27
000
FTUS43 KDLH 260500 AAA
TAFHYR
TAF AMD
KHYR 260526Z 2605/2706 VRB03KT 6SM -DZ BR SCT015 BKN040
      TEMPO 2609/2612 2SM BR OVC004
     FM261600 VRB04KT P6SM VCSH BKN050
     FM270000 VRB05KT P6SM -DZ OVC025=

USA.gov is the U.S. government's official web portal to all federal, state and local government web resources and services.